Cleveland, OH

1:29 AM EST on January 21, 2017 (GMT -0500)
Cleveland | | Change Station
Active Advisory: Dense Fog Advisory

Elev 791 ft 41.41 °N, 81.85 °W | Updated 6 minutes ago

Scattered Clouds
Scattered Clouds
45 °F
Feels Like 42 °F
N
6
Wind Variable Wind from SSE

Today
High -- | Low -- °F
--% Chance of Precip.
Yesterday
High -- | Low -- °F
Precip. -- in
Pressure 29.80 in
Visibility 1.5 miles
Clouds Scattered Clouds 4500 ft
Windchill 42 °F
Dew Point 42 °F
Humidity 90%
Rainfall 0.00 in
Snow Depth Not available.
7:47 AM 5:30 PM
Last Quarter, 37% visible
SPECI KCLE 210623Z COR 16005KT 1 1/2SM BR SCT045 07/06 A2980 RMK AO2 T00720056
Pressure 29.80 in
Visibility 1.5 miles
Clouds Scattered Clouds 4500 ft
Windchill 42 °F
Dew Point 42 °F
Humidity 90%
Rainfall 0.00 in
Snow Depth Not available.
7:47 AM 5:30 PM
Last Quarter, 37% visible
SPECI KCLE 210623Z COR 16005KT 1 1/2SM BR SCT045 07/06 A2980 RMK AO2 T00720056

Get Your Daily Forecast Email!

Thanks for signing up!

Be on the lookout for a verification email in your inbox.

You'll start receiving the daily forecast at 8 AM.

×

10-Day Weather Forecast

Almanac

Astronomy

Jan. 21, 2017 Rise Set
Actual Time
Civil Twilight
Nautical Twilight
Astronomical Twilight
Moon
Length of Visible Light
Length of Day
Tomorrow will be .
, % of the Moon is Illuminated

Today's Extremes

State Highs State Lows

Community

WunderPhotos

Upload Photos

1,962,540 photos uploaded!

WunderBlog® & News

Nearby

Air Quality

  Air Quality AQ Index Pollutant
Not available.

Snow Depth

Station Depth Elevation

Earthquake Activity

City Distance Mag. Time & Date
Minimum magnitude displayed is 2.5.

Coastal Water Temperatures

Place Temperature

Stations

Nearby Weather Stations

Station Location Temp. Windchill Dew Point Humidity Wind Precip. Elev Updated Type
                   

Watches & Warnings

Dense Fog Advisory
Issued: 9:10 PM EST Jan. 20, 2017 – National Weather Service

... Dense fog advisory in effect until 5 am EST Saturday...

The National Weather Service in Cleveland has issued a dense fog
advisory... which is in effect until 5 am EST Saturday.

* Visibilities... less than a quarter mile.

* Timing... overnight through 5 am.

* Impacts... low visibilities will make travel along the immediate
Lake Shore of Lake Erie difficult. Motorists should allow extra
distance between their vehicle and the one in front of them in
the event they encounter rapid changes in visibility.

Precautionary/preparedness actions...

A dense fog advisory is issued when visibilities will frequently
be reduced to less than one quarter mile. If driving... slow
down... use your headlights... and leave plenty of distance ahead
of you.



Lombardy